sensor_id;sensor_type;location;lat;lon;timestamp;P1;durP1;ratioP1;P2;durP2;ratioP2
79478;SDS011;68943;49.472;17.970;2023-09-12T00:02:11;15.07;;;12.13;;
79478;SDS011;68943;49.472;17.970;2023-09-12T00:04:37;13.35;;;10.60;;
79478;SDS011;68943;49.472;17.970;2023-09-12T00:07:03;14.25;;;11.38;;
79478;SDS011;68943;49.472;17.970;2023-09-12T00:09:29;14.02;;;10.23;;
79478;SDS011;68943;49.472;17.970;2023-09-12T00:11:55;14.40;;;11.43;;
79478;SDS011;68943;49.472;17.970;2023-09-12T00:14:21;15.15;;;11.00;;
79478;SDS011;68943;49.472;17.970;2023-09-12T00:16:47;13.95;;;11.02;;
79478;SDS011;68943;49.472;17.970;2023-09-12T00:19:13;16.35;;;11.70;;
79478;SDS011;68943;49.472;17.970;2023-09-12T00:21:39;16.55;;;11.90;;
79478;SDS011;68943;49.472;17.970;2023-09-12T00:24:06;14.65;;;11.00;;
79478;SDS011;68943;49.472;17.970;2023-09-12T00:26:32;17.60;;;12.82;;
79478;SDS011;68943;49.472;17.970;2023-09-12T00:28:58;15.68;;;11.15;;
79478;SDS011;68943;49.472;17.970;2023-09-12T00:31:24;18.40;;;12.60;;
79478;SDS011;68943;49.472;17.970;2023-09-12T00:33:50;17.67;;;12.20;;
79478;SDS011;68943;49.472;17.970;2023-09-12T00:36:16;18.63;;;13.02;;
79478;SDS011;68943;49.472;17.970;2023-09-12T00:38:42;17.48;;;12.40;;
79478;SDS011;68943;49.472;17.970;2023-09-12T00:41:08;16.10;;;12.23;;
79478;SDS011;68943;49.472;17.970;2023-09-12T00:43:34;15.65;;;11.80;;
79478;SDS011;68943;49.472;17.970;2023-09-12T00:46:00;14.80;;;12.18;;
79478;SDS011;68943;49.472;17.970;2023-09-12T00:48:26;16.45;;;13.10;;
79478;SDS011;68943;49.472;17.970;2023-09-12T00:50:52;19.40;;;10.98;;
79478;SDS011;68943;49.472;17.970;2023-09-12T00:53:19;18.33;;;11.57;;
79478;SDS011;68943;49.472;17.970;2023-09-12T00:55:46;14.77;;;11.73;;
79478;SDS011;68943;49.472;17.970;2023-09-12T00:58:14;17.33;;;11.85;;
79478;SDS011;68943;49.472;17.970;2023-09-12T01:00:41;16.00;;;11.52;;
79478;SDS011;68943;49.472;17.970;2023-09-12T01:03:07;15.95;;;11.45;;
79478;SDS011;68943;49.472;17.970;2023-09-12T01:05:33;15.63;;;11.55;;
79478;SDS011;68943;49.472;17.970;2023-09-12T01:07:59;16.35;;;12.52;;
79478;SDS011;68943;49.472;17.970;2023-09-12T01:10:26;14.25;;;11.35;;
79478;SDS011;68943;49.472;17.970;2023-09-12T01:12:52;18.27;;;11.60;;
79478;SDS011;68943;49.472;17.970;2023-09-12T01:15:18;17.08;;;12.43;;
79478;SDS011;68943;49.472;17.970;2023-09-12T01:17:48;15.35;;;11.73;;
79478;SDS011;68943;49.472;17.970;2023-09-12T01:20:16;15.85;;;12.43;;
79478;SDS011;68943;49.472;17.970;2023-09-12T01:27:52;14.45;;;10.30;;
79478;SDS011;68943;49.472;17.970;2023-09-12T01:30:21;17.40;;;12.02;;
79478;SDS011;68943;49.472;17.970;2023-09-12T01:32:48;15.85;;;10.25;;
79478;SDS011;68943;49.472;17.970;2023-09-12T01:35:14;13.85;;;10.82;;
79478;SDS011;68943;49.472;17.970;2023-09-12T01:37:40;13.82;;;10.68;;
79478;SDS011;68943;49.472;17.970;2023-09-12T01:40:06;17.17;;;11.10;;
79478;SDS011;68943;49.472;17.970;2023-09-12T01:42:43;15.70;;;11.18;;
79478;SDS011;68943;49.472;17.970;2023-09-12T01:45:12;13.48;;;11.00;;
79478;SDS011;68943;49.472;17.970;2023-09-12T01:47:39;12.70;;;10.05;;
79478;SDS011;68943;49.472;17.970;2023-09-12T01:50:06;14.60;;;10.48;;
79478;SDS011;68943;49.472;17.970;2023-09-12T01:52:34;13.80;;;10.25;;
79478;SDS011;68943;49.472;17.970;2023-09-12T01:55:01;12.90;;;9.68;;
79478;SDS011;68943;49.472;17.970;2023-09-12T01:57:27;13.40;;;10.55;;
79478;SDS011;68943;49.472;17.970;2023-09-12T01:59:54;13.13;;;9.77;;
79478;SDS011;68943;49.472;17.970;2023-09-12T02:02:20;13.20;;;10.15;;
79478;SDS011;68943;49.472;17.970;2023-09-12T02:04:47;14.40;;;8.63;;
79478;SDS011;68943;49.472;17.970;2023-09-12T02:07:16;13.43;;;9.25;;
79478;SDS011;68943;49.472;17.970;2023-09-12T02:09:42;15.23;;;10.70;;
79478;SDS011;68943;49.472;17.970;2023-09-12T02:12:08;15.70;;;9.77;;
79478;SDS011;68943;49.472;17.970;2023-09-12T02:14:34;14.18;;;9.77;;
79478;SDS011;68943;49.472;17.970;2023-09-12T02:17:00;14.00;;;9.30;;
79478;SDS011;68943;49.472;17.970;2023-09-12T02:19:26;12.75;;;10.20;;
79478;SDS011;68943;49.472;17.970;2023-09-12T02:21:52;14.98;;;10.32;;
79478;SDS011;68943;49.472;17.970;2023-09-12T02:24:18;13.05;;;10.07;;
79478;SDS011;68943;49.472;17.970;2023-09-12T02:26:46;13.63;;;10.30;;
79478;SDS011;68943;49.472;17.970;2023-09-12T02:29:12;13.10;;;10.20;;
79478;SDS011;68943;49.472;17.970;2023-09-12T02:31:38;15.10;;;9.73;;
79478;SDS011;68943;49.472;17.970;2023-09-12T02:34:05;12.90;;;9.32;;
79478;SDS011;68943;49.472;17.970;2023-09-12T02:36:31;12.65;;;10.10;;
79478;SDS011;68943;49.472;17.970;2023-09-12T02:38:57;12.75;;;10.07;;
79478;SDS011;68943;49.472;17.970;2023-09-12T02:41:23;13.15;;;10.20;;
79478;SDS011;68943;49.472;17.970;2023-09-12T02:43:49;13.80;;;10.00;;
79478;SDS011;68943;49.472;17.970;2023-09-12T02:46:15;13.00;;;9.20;;
79478;SDS011;68943;49.472;17.970;2023-09-12T02:48:41;15.07;;;9.68;;
79478;SDS011;68943;49.472;17.970;2023-09-12T02:51:07;16.33;;;9.93;;
79478;SDS011;68943;49.472;17.970;2023-09-12T02:53:33;15.38;;;9.38;;
79478;SDS011;68943;49.472;17.970;2023-09-12T02:55:59;13.15;;;9.45;;
79478;SDS011;68943;49.472;17.970;2023-09-12T02:58:25;12.70;;;9.18;;
79478;SDS011;68943;49.472;17.970;2023-09-12T03:00:51;12.80;;;10.10;;
79478;SDS011;68943;49.472;17.970;2023-09-12T03:03:19;13.85;;;9.68;;
79478;SDS011;68943;49.472;17.970;2023-09-12T03:05:45;13.73;;;9.90;;
79478;SDS011;68943;49.472;17.970;2023-09-12T03:08:12;12.32;;;10.10;;
79478;SDS011;68943;49.472;17.970;2023-09-12T03:10:38;14.70;;;9.93;;
79478;SDS011;68943;49.472;17.970;2023-09-12T03:13:04;14.38;;;9.85;;
79478;SDS011;68943;49.472;17.970;2023-09-12T03:15:35;13.10;;;9.45;;
79478;SDS011;68943;49.472;17.970;2023-09-12T03:18:01;12.63;;;9.63;;
79478;SDS011;68943;49.472;17.970;2023-09-12T03:20:27;16.20;;;11.85;;
79478;SDS011;68943;49.472;17.970;2023-09-12T03:22:53;12.50;;;8.90;;
79478;SDS011;68943;49.472;17.970;2023-09-12T03:25:19;13.38;;;10.00;;
79478;SDS011;68943;49.472;17.970;2023-09-12T03:27:46;13.73;;;9.25;;
79478;SDS011;68943;49.472;17.970;2023-09-12T03:30:12;12.73;;;9.15;;
79478;SDS011;68943;49.472;17.970;2023-09-12T03:32:38;14.77;;;9.98;;
79478;SDS011;68943;49.472;17.970;2023-09-12T03:35:05;12.63;;;9.35;;
79478;SDS011;68943;49.472;17.970;2023-09-12T03:37:31;13.55;;;9.07;;
79478;SDS011;68943;49.472;17.970;2023-09-12T03:39:57;14.02;;;9.13;;
79478;SDS011;68943;49.472;17.970;2023-09-12T03:42:23;13.48;;;9.57;;
79478;SDS011;68943;49.472;17.970;2023-09-12T03:44:49;13.48;;;10.20;;
79478;SDS011;68943;49.472;17.970;2023-09-12T03:47:15;13.23;;;8.90;;
79478;SDS011;68943;49.472;17.970;2023-09-12T03:49:41;13.90;;;10.98;;
79478;SDS011;68943;49.472;17.970;2023-09-12T03:52:07;17.02;;;9.57;;
79478;SDS011;68943;49.472;17.970;2023-09-12T03:54:33;13.13;;;9.45;;
79478;SDS011;68943;49.472;17.970;2023-09-12T03:56:59;14.77;;;9.80;;
79478;SDS011;68943;49.472;17.970;2023-09-12T03:59:25;13.43;;;9.57;;
79478;SDS011;68943;49.472;17.970;2023-09-12T04:01:51;12.32;;;9.20;;
79478;SDS011;68943;49.472;17.970;2023-09-12T04:04:17;15.50;;;9.63;;
79478;SDS011;68943;49.472;17.970;2023-09-12T04:06:43;12.60;;;9.73;;
79478;SDS011;68943;49.472;17.970;2023-09-12T04:09:09;14.07;;;10.15;;
79478;SDS011;68943;49.472;17.970;2023-09-12T04:11:35;13.05;;;9.60;;
79478;SDS011;68943;49.472;17.970;2023-09-12T04:14:22;15.95;;;9.80;;
79478;SDS011;68943;49.472;17.970;2023-09-12T04:16:48;12.60;;;8.88;;
79478;SDS011;68943;49.472;17.970;2023-09-12T04:19:14;14.07;;;10.02;;
79478;SDS011;68943;49.472;17.970;2023-09-12T04:21:40;13.98;;;9.63;;
79478;SDS011;68943;49.472;17.970;2023-09-12T04:24:07;20.60;;;10.07;;
79478;SDS011;68943;49.472;17.970;2023-09-12T04:26:34;12.60;;;9.48;;
79478;SDS011;68943;49.472;17.970;2023-09-12T04:29:00;13.40;;;9.90;;
79478;SDS011;68943;49.472;17.970;2023-09-12T04:31:26;15.13;;;9.95;;
79478;SDS011;68943;49.472;17.970;2023-09-12T04:33:52;16.92;;;9.75;;
79478;SDS011;68943;49.472;17.970;2023-09-12T04:36:18;15.95;;;10.15;;
79478;SDS011;68943;49.472;17.970;2023-09-12T04:38:44;11.75;;;9.93;;
79478;SDS011;68943;49.472;17.970;2023-09-12T04:41:11;14.77;;;10.02;;
79478;SDS011;68943;49.472;17.970;2023-09-12T04:43:40;15.20;;;9.57;;
79478;SDS011;68943;49.472;17.970;2023-09-12T04:46:06;13.57;;;9.80;;
79478;SDS011;68943;49.472;17.970;2023-09-12T04:48:32;15.20;;;9.98;;
79478;SDS011;68943;49.472;17.970;2023-09-12T04:50:58;12.57;;;10.18;;
79478;SDS011;68943;49.472;17.970;2023-09-12T04:53:25;13.23;;;9.60;;
79478;SDS011;68943;49.472;17.970;2023-09-12T04:55:54;15.05;;;9.57;;
79478;SDS011;68943;49.472;17.970;2023-09-12T04:58:20;14.15;;;9.95;;
79478;SDS011;68943;49.472;17.970;2023-09-12T05:00:46;16.30;;;9.85;;
79478;SDS011;68943;49.472;17.970;2023-09-12T05:03:13;13.10;;;8.98;;
79478;SDS011;68943;49.472;17.970;2023-09-12T05:05:39;12.32;;;8.48;;
79478;SDS011;68943;49.472;17.970;2023-09-12T05:08:05;11.63;;;8.82;;
79478;SDS011;68943;49.472;17.970;2023-09-12T05:10:32;11.05;;;9.07;;
79478;SDS011;68943;49.472;17.970;2023-09-12T05:12:58;14.07;;;8.88;;
79478;SDS011;68943;49.472;17.970;2023-09-12T05:15:24;12.10;;;8.50;;
79478;SDS011;68943;49.472;17.970;2023-09-12T05:17:51;12.68;;;9.75;;
79478;SDS011;68943;49.472;17.970;2023-09-12T05:20:17;11.77;;;9.50;;
79478;SDS011;68943;49.472;17.970;2023-09-12T05:22:44;13.45;;;9.82;;
79478;SDS011;68943;49.472;17.970;2023-09-12T05:25:10;12.25;;;9.57;;
79478;SDS011;68943;49.472;17.970;2023-09-12T05:27:37;12.38;;;8.88;;
79478;SDS011;68943;49.472;17.970;2023-09-12T05:30:03;11.88;;;8.40;;
79478;SDS011;68943;49.472;17.970;2023-09-12T05:32:30;11.18;;;8.60;;
79478;SDS011;68943;49.472;17.970;2023-09-12T05:34:56;12.80;;;8.93;;
79478;SDS011;68943;49.472;17.970;2023-09-12T05:37:22;12.15;;;8.40;;
79478;SDS011;68943;49.472;17.970;2023-09-12T05:39:48;10.73;;;9.10;;
79478;SDS011;68943;49.472;17.970;2023-09-12T05:42:14;12.18;;;8.75;;
79478;SDS011;68943;49.472;17.970;2023-09-12T05:44:45;10.85;;;8.57;;
79478;SDS011;68943;49.472;17.970;2023-09-12T05:47:11;12.70;;;8.88;;
79478;SDS011;68943;49.472;17.970;2023-09-12T05:49:39;15.23;;;8.45;;
79478;SDS011;68943;49.472;17.970;2023-09-12T05:52:05;12.00;;;8.13;;
79478;SDS011;68943;49.472;17.970;2023-09-12T05:54:31;11.30;;;8.98;;
79478;SDS011;68943;49.472;17.970;2023-09-12T05:56:57;13.23;;;8.55;;
79478;SDS011;68943;49.472;17.970;2023-09-12T05:59:23;11.77;;;8.15;;
79478;SDS011;68943;49.472;17.970;2023-09-12T06:01:49;14.45;;;8.73;;
79478;SDS011;68943;49.472;17.970;2023-09-12T06:04:17;14.02;;;8.18;;
79478;SDS011;68943;49.472;17.970;2023-09-12T06:06:43;12.48;;;8.10;;
79478;SDS011;68943;49.472;17.970;2023-09-12T06:09:10;12.70;;;8.00;;
79478;SDS011;68943;49.472;17.970;2023-09-12T06:11:36;11.85;;;9.07;;
79478;SDS011;68943;49.472;17.970;2023-09-12T06:14:02;10.70;;;7.38;;
79478;SDS011;68943;49.472;17.970;2023-09-12T06:16:28;11.48;;;8.20;;
79478;SDS011;68943;49.472;17.970;2023-09-12T06:18:56;12.27;;;7.85;;
79478;SDS011;68943;49.472;17.970;2023-09-12T06:21:23;15.30;;;8.52;;
79478;SDS011;68943;49.472;17.970;2023-09-12T06:24:08;11.52;;;8.13;;
79478;SDS011;68943;49.472;17.970;2023-09-12T06:26:36;9.00;;;8.10;;
79478;SDS011;68943;49.472;17.970;2023-09-12T06:29:02;11.38;;;8.45;;
79478;SDS011;68943;49.472;17.970;2023-09-12T06:31:28;12.52;;;8.80;;
79478;SDS011;68943;49.472;17.970;2023-09-12T06:33:54;15.27;;;8.52;;
79478;SDS011;68943;49.472;17.970;2023-09-12T06:36:21;9.80;;;6.93;;
79478;SDS011;68943;49.472;17.970;2023-09-12T06:38:49;11.77;;;7.63;;
79478;SDS011;68943;49.472;17.970;2023-09-12T06:41:15;11.75;;;7.55;;
79478;SDS011;68943;49.472;17.970;2023-09-12T06:43:41;12.48;;;9.10;;
79478;SDS011;68943;49.472;17.970;2023-09-12T06:46:08;12.15;;;7.28;;
79478;SDS011;68943;49.472;17.970;2023-09-12T06:48:34;10.35;;;7.22;;
79478;SDS011;68943;49.472;17.970;2023-09-12T06:51:04;9.07;;;7.50;;
79478;SDS011;68943;49.472;17.970;2023-09-12T06:53:30;11.88;;;8.02;;
79478;SDS011;68943;49.472;17.970;2023-09-12T06:55:56;13.60;;;7.68;;
79478;SDS011;68943;49.472;17.970;2023-09-12T06:58:24;9.38;;;6.65;;
79478;SDS011;68943;49.472;17.970;2023-09-12T07:00:50;10.02;;;6.75;;
79478;SDS011;68943;49.472;17.970;2023-09-12T07:03:17;12.63;;;8.30;;
79478;SDS011;68943;49.472;17.970;2023-09-12T07:05:43;11.55;;;8.48;;
79478;SDS011;68943;49.472;17.970;2023-09-12T07:08:09;16.52;;;7.95;;
79478;SDS011;68943;49.472;17.970;2023-09-12T07:10:37;11.57;;;8.50;;
79478;SDS011;68943;49.472;17.970;2023-09-12T07:13:09;14.27;;;7.50;;
79478;SDS011;68943;49.472;17.970;2023-09-12T07:15:35;13.32;;;7.25;;
79478;SDS011;68943;49.472;17.970;2023-09-12T07:18:02;14.65;;;8.15;;
79478;SDS011;68943;49.472;17.970;2023-09-12T07:20:28;9.32;;;6.97;;
79478;SDS011;68943;49.472;17.970;2023-09-12T07:22:54;11.45;;;6.82;;
79478;SDS011;68943;49.472;17.970;2023-09-12T07:25:20;10.88;;;7.97;;
79478;SDS011;68943;49.472;17.970;2023-09-12T07:27:48;11.95;;;6.45;;
79478;SDS011;68943;49.472;17.970;2023-09-12T07:30:15;12.65;;;8.13;;
79478;SDS011;68943;49.472;17.970;2023-09-12T07:32:41;12.82;;;7.72;;
79478;SDS011;68943;49.472;17.970;2023-09-12T07:35:07;13.45;;;8.05;;
79478;SDS011;68943;49.472;17.970;2023-09-12T07:37:33;10.10;;;7.38;;
79478;SDS011;68943;49.472;17.970;2023-09-12T07:40:00;14.77;;;7.95;;
79478;SDS011;68943;49.472;17.970;2023-09-12T07:42:26;12.70;;;7.85;;
79478;SDS011;68943;49.472;17.970;2023-09-12T07:44:52;12.95;;;8.23;;
79478;SDS011;68943;49.472;17.970;2023-09-12T07:47:21;10.70;;;7.90;;
79478;SDS011;68943;49.472;17.970;2023-09-12T07:49:52;9.68;;;6.40;;
79478;SDS011;68943;49.472;17.970;2023-09-12T07:52:18;14.70;;;7.57;;
79478;SDS011;68943;49.472;17.970;2023-09-12T07:54:44;10.35;;;7.93;;
79478;SDS011;68943;49.472;17.970;2023-09-12T07:57:10;12.05;;;6.78;;
79478;SDS011;68943;49.472;17.970;2023-09-12T07:59:37;10.73;;;7.35;;
79478;SDS011;68943;49.472;17.970;2023-09-12T08:02:04;9.07;;;7.35;;
79478;SDS011;68943;49.472;17.970;2023-09-12T08:04:30;19.70;;;7.60;;
79478;SDS011;68943;49.472;17.970;2023-09-12T08:06:56;9.98;;;7.20;;
79478;SDS011;68943;49.472;17.970;2023-09-12T08:09:22;11.73;;;7.50;;
79478;SDS011;68943;49.472;17.970;2023-09-12T08:11:48;14.27;;;6.95;;
79478;SDS011;68943;49.472;17.970;2023-09-12T08:14:14;8.80;;;7.15;;
79478;SDS011;68943;49.472;17.970;2023-09-12T08:16:40;10.60;;;6.90;;
79478;SDS011;68943;49.472;17.970;2023-09-12T08:19:06;9.95;;;5.82;;
79478;SDS011;68943;49.472;17.970;2023-09-12T08:21:32;13.20;;;6.97;;
79478;SDS011;68943;49.472;17.970;2023-09-12T08:23:58;8.27;;;6.65;;
79478;SDS011;68943;49.472;17.970;2023-09-12T08:26:24;12.95;;;6.60;;
79478;SDS011;68943;49.472;17.970;2023-09-12T08:28:51;11.60;;;7.03;;
79478;SDS011;68943;49.472;17.970;2023-09-12T08:31:17;11.85;;;7.88;;
79478;SDS011;68943;49.472;17.970;2023-09-12T08:33:43;11.18;;;7.18;;
79478;SDS011;68943;49.472;17.970;2023-09-12T08:36:10;11.93;;;5.70;;
79478;SDS011;68943;49.472;17.970;2023-09-12T08:38:38;8.23;;;6.63;;
79478;SDS011;68943;49.472;17.970;2023-09-12T08:41:05;15.18;;;6.80;;
79478;SDS011;68943;49.472;17.970;2023-09-12T08:43:31;9.52;;;5.90;;
79478;SDS011;68943;49.472;17.970;2023-09-12T08:45:59;7.78;;;5.28;;
79478;SDS011;68943;49.472;17.970;2023-09-12T08:48:26;9.18;;;5.63;;
79478;SDS011;68943;49.472;17.970;2023-09-12T08:50:54;10.82;;;6.15;;
79478;SDS011;68943;49.472;17.970;2023-09-12T08:53:20;9.80;;;5.85;;
79478;SDS011;68943;49.472;17.970;2023-09-12T08:55:47;8.43;;;5.97;;
79478;SDS011;68943;49.472;17.970;2023-09-12T08:58:13;15.25;;;6.90;;
79478;SDS011;68943;49.472;17.970;2023-09-12T09:00:43;14.02;;;7.60;;
79478;SDS011;68943;49.472;17.970;2023-09-12T09:03:10;8.38;;;5.05;;
79478;SDS011;68943;49.472;17.970;2023-09-12T09:05:38;7.53;;;6.18;;
79478;SDS011;68943;49.472;17.970;2023-09-12T09:08:05;7.75;;;5.10;;
79478;SDS011;68943;49.472;17.970;2023-09-12T09:10:32;8.38;;;5.70;;
79478;SDS011;68943;49.472;17.970;2023-09-12T09:12:59;10.25;;;5.18;;
79478;SDS011;68943;49.472;17.970;2023-09-12T09:15:28;9.70;;;5.50;;
79478;SDS011;68943;49.472;17.970;2023-09-12T09:17:57;10.52;;;5.53;;
79478;SDS011;68943;49.472;17.970;2023-09-12T09:20:27;9.48;;;5.15;;
79478;SDS011;68943;49.472;17.970;2023-09-12T09:22:57;10.25;;;5.57;;
79478;SDS011;68943;49.472;17.970;2023-09-12T09:25:23;6.68;;;5.10;;
79478;SDS011;68943;49.472;17.970;2023-09-12T09:27:49;8.63;;;5.22;;
79478;SDS011;68943;49.472;17.970;2023-09-12T09:30:16;8.63;;;5.40;;
79478;SDS011;68943;49.472;17.970;2023-09-12T09:32:43;9.32;;;5.35;;
79478;SDS011;68943;49.472;17.970;2023-09-12T09:35:10;8.98;;;6.38;;
79478;SDS011;68943;49.472;17.970;2023-09-12T09:37:37;13.40;;;6.40;;
79478;SDS011;68943;49.472;17.970;2023-09-12T09:40:07;10.32;;;6.75;;
79478;SDS011;68943;49.472;17.970;2023-09-12T09:42:39;8.68;;;5.63;;
79478;SDS011;68943;49.472;17.970;2023-09-12T09:45:06;10.88;;;6.93;;
79478;SDS011;68943;49.472;17.970;2023-09-12T09:47:34;10.43;;;5.90;;
79478;SDS011;68943;49.472;17.970;2023-09-12T09:50:00;11.93;;;5.75;;
79478;SDS011;68943;49.472;17.970;2023-09-12T09:52:26;12.55;;;6.75;;
79478;SDS011;68943;49.472;17.970;2023-09-12T09:54:53;12.90;;;6.65;;
79478;SDS011;68943;49.472;17.970;2023-09-12T09:57:19;12.20;;;5.65;;
79478;SDS011;68943;49.472;17.970;2023-09-12T09:59:48;10.85;;;5.40;;
79478;SDS011;68943;49.472;17.970;2023-09-12T10:02:18;12.80;;;6.35;;
79478;SDS011;68943;49.472;17.970;2023-09-12T10:04:46;11.52;;;6.10;;
79478;SDS011;68943;49.472;17.970;2023-09-12T10:07:13;9.98;;;5.40;;
79478;SDS011;68943;49.472;17.970;2023-09-12T10:09:39;10.57;;;5.22;;
79478;SDS011;68943;49.472;17.970;2023-09-12T10:12:16;10.80;;;5.07;;
79478;SDS011;68943;49.472;17.970;2023-09-12T10:14:43;16.50;;;6.03;;
79478;SDS011;68943;49.472;17.970;2023-09-12T10:17:10;10.48;;;5.47;;
79478;SDS011;68943;49.472;17.970;2023-09-12T10:19:39;11.65;;;5.97;;
79478;SDS011;68943;49.472;17.970;2023-09-12T10:24:35;10.88;;;5.45;;
79478;SDS011;68943;49.472;17.970;2023-09-12T10:27:05;8.35;;;6.30;;
79478;SDS011;68943;49.472;17.970;2023-09-12T10:29:34;12.25;;;6.57;;
79478;SDS011;68943;49.472;17.970;2023-09-12T10:32:01;9.45;;;5.38;;
79478;SDS011;68943;49.472;17.970;2023-09-12T10:34:28;11.80;;;4.88;;
79478;SDS011;68943;49.472;17.970;2023-09-12T10:36:56;8.60;;;5.82;;
79478;SDS011;68943;49.472;17.970;2023-09-12T10:39:24;9.10;;;6.10;;
79478;SDS011;68943;49.472;17.970;2023-09-12T10:41:52;9.43;;;5.57;;
79478;SDS011;68943;49.472;17.970;2023-09-12T10:44:20;23.25;;;6.97;;
79478;SDS011;68943;49.472;17.970;2023-09-12T10:46:46;14.40;;;6.60;;
79478;SDS011;68943;49.472;17.970;2023-09-12T10:52:28;12.95;;;6.30;;
79478;SDS011;68943;49.472;17.970;2023-09-12T10:54:54;11.57;;;4.78;;
79478;SDS011;68943;49.472;17.970;2023-09-12T10:57:21;8.43;;;4.60;;
79478;SDS011;68943;49.472;17.970;2023-09-12T11:02:31;7.53;;;4.47;;
79478;SDS011;68943;49.472;17.970;2023-09-12T11:05:04;13.25;;;5.80;;
79478;SDS011;68943;49.472;17.970;2023-09-12T11:12:42;15.52;;;4.95;;
79478;SDS011;68943;49.472;17.970;2023-09-12T11:15:08;15.02;;;6.30;;
79478;SDS011;68943;49.472;17.970;2023-09-12T11:17:40;15.15;;;6.28;;
79478;SDS011;68943;49.472;17.970;2023-09-12T11:22:51;8.93;;;4.90;;
79478;SDS011;68943;49.472;17.970;2023-09-12T11:25:20;10.15;;;5.38;;
79478;SDS011;68943;49.472;17.970;2023-09-12T11:30:23;8.30;;;5.28;;
79478;SDS011;68943;49.472;17.970;2023-09-12T11:32:56;11.32;;;5.85;;
79478;SDS011;68943;49.472;17.970;2023-09-12T11:35:23;10.23;;;5.65;;
79478;SDS011;68943;49.472;17.970;2023-09-12T11:37:50;13.75;;;5.72;;
79478;SDS011;68943;49.472;17.970;2023-09-12T11:40:17;11.13;;;6.70;;
79478;SDS011;68943;49.472;17.970;2023-09-12T11:42:44;8.45;;;6.03;;
79478;SDS011;68943;49.472;17.970;2023-09-12T11:45:14;13.05;;;5.80;;
79478;SDS011;68943;49.472;17.970;2023-09-12T11:47:43;8.85;;;5.72;;
79478;SDS011;68943;49.472;17.970;2023-09-12T11:50:26;11.40;;;5.53;;
79478;SDS011;68943;49.472;17.970;2023-09-12T11:55:50;10.50;;;6.15;;
79478;SDS011;68943;49.472;17.970;2023-09-12T12:01:23;10.18;;;5.22;;
79478;SDS011;68943;49.472;17.970;2023-09-12T12:03:50;14.38;;;5.85;;
79478;SDS011;68943;49.472;17.970;2023-09-12T12:06:18;11.88;;;6.28;;
79478;SDS011;68943;49.472;17.970;2023-09-12T12:08:44;15.25;;;8.60;;
79478;SDS011;68943;49.472;17.970;2023-09-12T12:11:11;10.65;;;5.55;;
79478;SDS011;68943;49.472;17.970;2023-09-12T12:13:37;10.38;;;6.22;;
79478;SDS011;68943;49.472;17.970;2023-09-12T12:16:16;7.57;;;5.35;;
79478;SDS011;68943;49.472;17.970;2023-09-12T12:18:43;10.88;;;6.57;;
79478;SDS011;68943;49.472;17.970;2023-09-12T12:23:36;9.15;;;5.80;;
79478;SDS011;68943;49.472;17.970;2023-09-12T12:26:07;9.45;;;5.18;;
79478;SDS011;68943;49.472;17.970;2023-09-12T12:28:49;13.35;;;6.00;;
79478;SDS011;68943;49.472;17.970;2023-09-12T12:31:17;8.60;;;5.22;;
79478;SDS011;68943;49.472;17.970;2023-09-12T12:33:49;14.90;;;6.68;;
79478;SDS011;68943;49.472;17.970;2023-09-12T12:36:16;11.63;;;5.10;;
79478;SDS011;68943;49.472;17.970;2023-09-12T12:38:42;9.00;;;6.10;;
79478;SDS011;68943;49.472;17.970;2023-09-12T12:41:11;8.65;;;5.50;;
79478;SDS011;68943;49.472;17.970;2023-09-12T12:43:41;11.20;;;6.55;;
79478;SDS011;68943;49.472;17.970;2023-09-12T12:46:11;11.77;;;5.93;;
79478;SDS011;68943;49.472;17.970;2023-09-12T12:48:38;10.45;;;6.22;;
79478;SDS011;68943;49.472;17.970;2023-09-12T12:51:16;11.70;;;6.20;;
79478;SDS011;68943;49.472;17.970;2023-09-12T12:53:43;13.48;;;6.78;;
79478;SDS011;68943;49.472;17.970;2023-09-12T12:56:28;14.50;;;9.55;;
79478;SDS011;68943;49.472;17.970;2023-09-12T12:59:04;14.70;;;6.10;;
79478;SDS011;68943;49.472;17.970;2023-09-12T13:01:32;13.57;;;6.55;;
79478;SDS011;68943;49.472;17.970;2023-09-12T13:03:58;7.80;;;6.30;;
79478;SDS011;68943;49.472;17.970;2023-09-12T13:06:25;10.57;;;5.32;;
79478;SDS011;68943;49.472;17.970;2023-09-12T13:08:53;8.18;;;5.53;;
79478;SDS011;68943;49.472;17.970;2023-09-12T13:11:19;7.95;;;5.88;;
79478;SDS011;68943;49.472;17.970;2023-09-12T13:13:46;9.07;;;6.00;;
79478;SDS011;68943;49.472;17.970;2023-09-12T13:16:16;9.10;;;6.35;;
79478;SDS011;68943;49.472;17.970;2023-09-12T13:18:42;9.00;;;5.68;;
79478;SDS011;68943;49.472;17.970;2023-09-12T13:21:08;9.57;;;6.40;;
79478;SDS011;68943;49.472;17.970;2023-09-12T13:23:42;12.45;;;7.15;;
79478;SDS011;68943;49.472;17.970;2023-09-12T13:26:08;11.32;;;6.95;;
79478;SDS011;68943;49.472;17.970;2023-09-12T13:34:44;13.73;;;7.43;;
79478;SDS011;68943;49.472;17.970;2023-09-12T13:37:11;12.30;;;6.68;;
79478;SDS011;68943;49.472;17.970;2023-09-12T13:39:37;19.67;;;8.30;;
79478;SDS011;68943;49.472;17.970;2023-09-12T13:42:06;11.27;;;6.70;;
79478;SDS011;68943;49.472;17.970;2023-09-12T13:44:34;11.88;;;5.82;;
79478;SDS011;68943;49.472;17.970;2023-09-12T13:47:02;9.35;;;6.38;;
79478;SDS011;68943;49.472;17.970;2023-09-12T13:49:28;11.85;;;6.53;;
79478;SDS011;68943;49.472;17.970;2023-09-12T13:51:54;12.02;;;6.40;;
79478;SDS011;68943;49.472;17.970;2023-09-12T13:54:20;10.45;;;6.70;;
79478;SDS011;68943;49.472;17.970;2023-09-12T13:56:46;14.15;;;7.15;;
79478;SDS011;68943;49.472;17.970;2023-09-12T13:59:13;12.50;;;6.57;;
79478;SDS011;68943;49.472;17.970;2023-09-12T14:01:41;13.07;;;6.78;;
79478;SDS011;68943;49.472;17.970;2023-09-12T14:04:08;8.52;;;6.50;;
79478;SDS011;68943;49.472;17.970;2023-09-12T14:06:35;13.35;;;5.78;;
79478;SDS011;68943;49.472;17.970;2023-09-12T14:09:01;7.25;;;5.72;;
79478;SDS011;68943;49.472;17.970;2023-09-12T14:11:27;9.60;;;6.38;;
79478;SDS011;68943;49.472;17.970;2023-09-12T14:13:53;10.63;;;6.53;;
79478;SDS011;68943;49.472;17.970;2023-09-12T14:16:19;12.57;;;6.25;;
79478;SDS011;68943;49.472;17.970;2023-09-12T14:18:45;10.93;;;6.15;;
79478;SDS011;68943;49.472;17.970;2023-09-12T14:21:11;15.80;;;6.30;;
79478;SDS011;68943;49.472;17.970;2023-09-12T14:23:52;9.30;;;6.00;;
79478;SDS011;68943;49.472;17.970;2023-09-12T14:26:18;10.43;;;6.03;;
79478;SDS011;68943;49.472;17.970;2023-09-12T14:28:44;8.38;;;5.40;;
79478;SDS011;68943;49.472;17.970;2023-09-12T14:31:13;12.30;;;6.00;;
79478;SDS011;68943;49.472;17.970;2023-09-12T14:33:40;9.73;;;5.95;;
79478;SDS011;68943;49.472;17.970;2023-09-12T14:36:10;9.98;;;6.28;;
79478;SDS011;68943;49.472;17.970;2023-09-12T14:38:36;8.77;;;5.60;;
79478;SDS011;68943;49.472;17.970;2023-09-12T14:41:02;10.13;;;5.80;;
79478;SDS011;68943;49.472;17.970;2023-09-12T14:43:28;13.75;;;5.70;;
79478;SDS011;68943;49.472;17.970;2023-09-12T14:45:55;15.38;;;7.13;;
79478;SDS011;68943;49.472;17.970;2023-09-12T14:48:22;12.10;;;6.20;;
79478;SDS011;68943;49.472;17.970;2023-09-12T14:50:48;11.10;;;5.75;;
79478;SDS011;68943;49.472;17.970;2023-09-12T14:53:14;10.85;;;6.00;;
79478;SDS011;68943;49.472;17.970;2023-09-12T14:55:41;9.93;;;5.95;;
79478;SDS011;68943;49.472;17.970;2023-09-12T14:58:08;11.35;;;6.05;;
79478;SDS011;68943;49.472;17.970;2023-09-12T15:03:38;7.97;;;5.07;;